createdAt,value
2016-11-16T12:17:55.429Z,87.5
2016-11-16T12:18:55.420Z,87.98
2016-11-16T12:19:55.416Z,87.79
2016-11-16T12:20:55.406Z,87.6
2016-11-16T12:21:55.404Z,87.4
2016-11-16T12:22:55.391Z,88.17
2016-11-16T12:23:55.385Z,87.88
2016-11-16T12:24:55.383Z,87.4
2016-11-16T12:25:55.371Z,87.79
2016-11-16T12:26:55.368Z,87.88
2016-11-16T12:27:55.361Z,87.88
2016-11-16T12:28:55.351Z,88.26
2016-11-16T12:29:55.347Z,88.26
2016-11-16T12:30:55.338Z,88.45
2016-11-16T12:31:55.331Z,87.6
2016-11-16T12:32:55.324Z,88.07
2016-11-16T12:33:55.318Z,88.36
2016-11-16T12:34:55.314Z,88.26
2016-11-16T12:35:55.302Z,88.26
2016-11-16T12:36:55.297Z,87.98
2016-11-16T12:37:55.299Z,88.26
2016-11-16T12:38:55.280Z,88.26
2016-11-16T12:39:55.277Z,88.07
2016-11-16T12:40:55.267Z,88.74
2016-11-16T12:41:55.260Z,88.36
2016-11-16T12:42:55.252Z,88.55
2016-11-16T12:43:55.251Z,89.03
2016-11-16T12:44:55.240Z,88.45
2016-11-16T12:45:55.238Z,88.84
2016-11-16T12:46:55.224Z,88.55
2016-11-16T12:47:55.219Z,88.55
2016-11-16T12:48:55.212Z,88.36
2016-11-16T12:49:55.203Z,88.36
2016-11-16T12:50:55.197Z,88.17
2016-11-16T12:51:55.188Z,88.74
2016-11-16T12:52:55.180Z,88.45
2016-11-16T12:53:55.178Z,87.79
2016-11-16T12:54:55.169Z,88.64
2016-11-16T12:55:55.167Z,88.55
2016-11-16T12:56:55.179Z,87.79
2016-11-16T12:57:55.152Z,88.55
2016-11-16T12:58:55.139Z,87.79
2016-11-16T12:59:55.140Z,88.74
2016-11-16T13:00:55.434Z,88.12
2016-11-16T13:01:55.431Z,88.36
2016-11-16T13:02:55.115Z,88.74
2016-11-16T13:03:55.107Z,88.41
2016-11-16T13:04:55.096Z,89.17
2016-11-16T13:05:55.401Z,88.89
2016-11-16T13:06:55.086Z,89.17
2016-11-16T13:07:55.076Z,89.46
2016-11-16T13:08:55.066Z,89.17
2016-11-16T13:09:55.060Z,89.17
2016-11-16T13:10:55.051Z,89.22
2016-11-16T13:11:55.054Z,88.6
2016-11-16T13:12:55.039Z,89.26
2016-11-16T13:13:55.034Z,88.98
2016-11-16T13:14:55.028Z,89.12
2016-11-16T13:15:55.015Z,89.07
2016-11-16T13:16:55.010Z,89.17
2016-11-16T13:17:55.313Z,88.98
2016-11-16T13:18:54.995Z,89.65
2016-11-16T13:19:54.986Z,89.65
2016-11-16T13:20:54.980Z,90.12
2016-11-16T13:21:54.980Z,90.22
2016-11-16T13:22:55.273Z,90.41
2016-11-16T13:23:54.961Z,90.79
2016-11-16T13:24:54.970Z,90.5
2016-11-16T13:25:55.249Z,90.7
2016-11-16T13:26:54.937Z,91.17
2016-11-16T13:27:54.931Z,90.89
2016-11-16T13:28:54.919Z,90.89
2016-11-16T13:29:54.917Z,91.6
2016-11-16T13:30:54.905Z,92.08
2016-11-16T13:31:54.901Z,92.18
2016-11-16T13:32:54.891Z,92.27
2016-11-16T13:33:54.887Z,92.55
2016-11-16T13:34:54.878Z,92.08
2016-11-16T13:35:54.871Z,92.84
2016-11-16T13:36:54.865Z,92.74
2016-11-16T13:37:54.853Z,92.84
2016-11-16T13:38:54.845Z,93.22
2016-11-16T13:39:54.838Z,93.41
2016-11-16T13:40:54.834Z,93.89
2016-11-16T13:41:54.826Z,93.7
2016-11-16T13:42:54.816Z,93.6
2016-11-16T13:43:54.808Z,93.89
2016-11-16T13:44:54.799Z,94.03
2016-11-16T13:45:54.796Z,94.37
2016-11-16T13:46:54.782Z,95.03
2016-11-16T13:47:54.779Z,94.42
2016-11-16T13:48:54.771Z,94.22
2016-11-16T13:49:54.759Z,94.7
2016-11-16T13:50:54.755Z,94.79
2016-11-16T13:51:54.758Z,95.36
2016-11-16T13:52:54.738Z,95.17
2016-11-16T13:53:54.730Z,95.17
2016-11-16T13:54:54.722Z,95.36
2016-11-16T13:55:54.712Z,95.56
2016-11-16T13:56:54.708Z,95.56
2016-11-16T13:57:54.698Z,95.65
2016-11-16T13:58:54.691Z,95.36
2016-11-16T13:59:54.709Z,95.08
2016-11-16T14:00:54.982Z,95.56
2016-11-16T14:01:54.666Z,95.94
2016-11-16T14:02:54.653Z,96.12
2016-11-16T14:03:54.648Z,95.94
2016-11-16T14:04:54.640Z,96.03
2016-11-16T14:05:54.631Z,95.94
2016-11-16T14:06:54.926Z,96.03
2016-11-16T14:07:54.616Z,96.31
2016-11-16T14:08:54.608Z,95.94
2016-11-16T14:09:54.601Z,96.12
2016-11-16T14:10:54.591Z,96.12
2016-11-16T14:11:54.578Z,95.84
2016-11-16T14:12:54.573Z,96.12
2016-11-16T14:13:54.566Z,95.84
2016-11-16T14:14:54.758Z,96.03
2016-11-16T14:15:54.547Z,96.22
2016-11-16T14:16:54.538Z,96.03
2016-11-16T14:17:54.893Z,95.94
2016-11-16T14:18:54.521Z,95.75
2016-11-16T14:19:54.514Z,95.56
2016-11-16T14:20:54.505Z,95.75
2016-11-16T14:21:54.498Z,95.65
2016-11-16T14:22:54.494Z,96.12
2016-11-16T14:23:54.483Z,95.36
2016-11-16T14:24:54.469Z,95.36
2016-11-16T14:25:54.461Z,95.36
2016-11-16T14:26:54.459Z,95.36
2016-11-16T14:27:54.455Z,95.17
2016-11-16T14:28:54.438Z,95.36
2016-11-16T14:29:54.430Z,95.36
2016-11-16T14:30:54.423Z,95.08
2016-11-16T14:31:54.418Z,94.98
2016-11-16T14:32:54.409Z,95.46
2016-11-16T14:33:54.397Z,95.36
2016-11-16T14:34:54.391Z,95.75
2016-11-16T14:35:54.382Z,95.56
2016-11-16T14:36:54.373Z,95.46
2016-11-16T14:37:54.365Z,95.36
2016-11-16T14:38:54.356Z,95.94
2016-11-16T14:39:54.348Z,95.46
2016-11-16T14:40:54.341Z,95.27
2016-11-16T14:41:54.337Z,95.56
2016-11-16T14:42:54.326Z,95.46
2016-11-16T14:43:54.315Z,95.27
2016-11-16T14:44:54.338Z,95.65
2016-11-16T14:45:54.299Z,96.12
2016-11-16T14:46:54.298Z,95.84
2016-11-16T14:47:54.281Z,95.65
2016-11-16T14:48:54.273Z,96.22
2016-11-16T14:49:54.267Z,96.79
2016-11-16T14:50:54.256Z,96.41
2016-11-16T14:51:54.248Z,97.08
2016-11-16T14:52:54.238Z,96.6
2016-11-16T14:53:54.236Z,96.79
2016-11-16T14:54:54.224Z,96.7
2016-11-16T14:55:54.216Z,97.27
2016-11-16T14:56:54.207Z,97.36
2016-11-16T14:57:54.196Z,96.7
2016-11-16T14:58:54.191Z,96.89
2016-11-16T14:59:54.186Z,96.98
2016-11-16T15:00:54.175Z,97.17
2016-11-16T15:01:54.163Z,96.98
2016-11-16T15:02:54.155Z,97.36
2016-11-16T15:03:54.147Z,97.08
2016-11-16T15:04:54.167Z,97.46
2016-11-16T15:05:54.131Z,97.93
2016-11-16T15:06:54.123Z,97.84
2016-11-16T15:07:54.114Z,97.74
2016-11-16T15:08:54.105Z,98.22
2016-11-16T15:09:54.098Z,98.03
2016-11-16T15:10:54.092Z,98.32
2016-11-16T15:11:54.084Z,98.03
2016-11-16T15:12:54.077Z,98.13
2016-11-16T15:13:54.065Z,98.5
2016-11-16T15:14:54.054Z,99.08
2016-11-16T15:15:54.353Z,99.08
2016-11-16T15:16:54.039Z,99.36
2016-11-16T15:17:54.030Z,98.88
2016-11-16T15:18:54.024Z,98.22
2016-11-16T15:19:54.014Z,98.5
2016-11-16T15:20:54.011Z,99.17
2016-11-16T15:21:53.995Z,98.69
2016-11-16T15:22:53.987Z,98.88
2016-11-16T15:23:53.980Z,98.22
2016-11-16T15:24:53.973Z,98.88
2016-11-16T15:25:53.963Z,98.79
2016-11-16T15:26:53.953Z,98.69
2016-11-16T15:27:53.979Z,99.08
2016-11-16T15:28:53.936Z,99.27
2016-11-16T15:29:53.929Z,99.08
2016-11-16T15:30:53.926Z,99.08
2016-11-16T15:31:53.914Z,99.08
2016-11-16T15:32:53.903Z,99.08
2016-11-16T15:33:53.898Z,99.08
2016-11-16T15:34:53.888Z,98.98
2016-11-16T15:35:53.882Z,98.98
2016-11-16T15:36:53.872Z,98.98
2016-11-16T15:37:53.863Z,99.36
2016-11-16T15:38:53.851Z,99.17
2016-11-16T15:39:53.846Z,99.74
2016-11-16T15:40:53.835Z,99.55
2016-11-16T15:41:53.829Z,99.55
2016-11-16T15:42:54.125Z,99.17
2016-11-16T15:43:53.811Z,99.36
2016-11-16T15:44:53.801Z,99.36
2016-11-16T15:45:53.795Z,99.17
2016-11-16T15:46:53.784Z,99.17
2016-11-16T15:47:53.780Z,99.36
2016-11-16T15:48:53.770Z,99.17
2016-11-16T15:49:53.759Z,99.17
2016-11-16T15:50:53.750Z,99.46
2016-11-16T15:51:53.744Z,98.98
2016-11-16T15:52:53.736Z,99.55
2016-11-16T15:53:53.727Z,99.46
2016-11-16T15:54:53.716Z,99.55
2016-11-16T15:55:53.710Z,99.46
2016-11-16T15:56:53.702Z,99.17
2016-11-16T15:57:53.692Z,98.79
2016-11-16T15:58:53.687Z,99.08
2016-11-16T15:59:53.677Z,99.27
2016-11-16T16:00:53.673Z,99.17
2016-11-16T16:01:53.656Z,98.88
2016-11-16T16:02:53.651Z,98.88
2016-11-16T16:03:53.643Z,98.79
2016-11-16T16:04:53.635Z,98.6
2016-11-16T16:05:53.624Z,98.98
2016-11-16T16:06:53.618Z,98.88
2016-11-16T16:07:53.609Z,98.79
2016-11-16T16:08:53.598Z,98.88
2016-11-16T16:09:53.595Z,98.6
2016-11-16T16:10:53.583Z,99.08
2016-11-16T16:11:53.572Z,98.5
2016-11-16T16:12:53.572Z,98.79
2016-11-16T16:13:53.557Z,98.88
2016-11-16T16:14:53.552Z,98.22
2016-11-16T16:15:53.539Z,98.88
2016-11-16T16:16:53.542Z,99.17
2016-11-16T16:17:53.524Z,98.13
2016-11-16T16:18:53.514Z,98.74
2016-11-16T16:19:53.508Z,98.22
2016-11-16T16:20:53.500Z,99.36
2016-11-16T16:21:53.489Z,98.22
2016-11-16T16:22:53.785Z,98.32
2016-11-16T16:23:53.474Z,98.13
2016-11-16T16:24:53.464Z,97.74
2016-11-16T16:25:53.456Z,98.03
2016-11-16T16:26:53.446Z,98.46
2016-11-16T16:27:53.436Z,98.5
2016-11-16T16:28:53.434Z,98.36
2016-11-16T16:29:53.422Z,98.32
2016-11-16T16:30:53.412Z,98.22
2016-11-16T16:31:53.406Z,97.84
2016-11-16T16:32:53.396Z,97.93
2016-11-16T16:33:53.389Z,98.08
2016-11-16T16:34:53.381Z,97.99
2016-11-16T16:35:53.368Z,97.7
2016-11-16T16:36:53.364Z,97.7
2016-11-16T16:37:53.355Z,97.79
2016-11-16T16:38:53.376Z,97.7
2016-11-16T16:39:53.335Z,98.03
2016-11-16T16:40:53.327Z,98.03
2016-11-16T16:41:53.321Z,98.41
2016-11-16T16:42:53.313Z,98.46
2016-11-16T16:43:53.303Z,98.13
2016-11-16T16:44:53.297Z,97.31
2016-11-16T16:45:53.289Z,97.84
2016-11-16T16:46:53.282Z,97.79
2016-11-16T16:47:53.273Z,97.7
2016-11-16T16:48:53.267Z,98.27
2016-11-16T16:49:53.264Z,97.7
2016-11-16T16:50:53.249Z,98.08
2016-11-16T16:51:53.235Z,97.89
2016-11-16T16:52:53.228Z,97.79
2016-11-16T16:53:53.228Z,97.89
2016-11-16T16:54:53.220Z,97.31
2016-11-16T16:55:53.209Z,97.51
2016-11-16T16:56:53.195Z,97.7
2016-11-16T16:57:53.188Z,97.41
2016-11-16T16:58:53.180Z,97.51
2016-11-16T16:59:53.167Z,97.22
2016-11-16T17:00:53.164Z,97.31
2016-11-16T17:01:53.153Z,97.7
2016-11-16T17:02:53.152Z,97.6
2016-11-16T17:03:53.143Z,97.6
2016-11-16T17:04:53.128Z,97.31
2016-11-16T17:05:53.122Z,97.13
2016-11-16T17:06:53.111Z,97.03
2016-11-16T17:07:53.103Z,97.13
2016-11-16T17:08:53.098Z,97.03
2016-11-16T17:09:53.089Z,97.31
2016-11-16T17:10:53.083Z,97.13
2016-11-16T17:11:53.072Z,97.22
2016-11-16T17:12:53.073Z,97.22
2016-11-16T17:13:53.057Z,97.31
2016-11-16T17:14:53.051Z,96.65
2016-11-16T17:15:53.041Z,96.46
2016-11-16T17:16:53.034Z,96.46
2016-11-16T17:17:53.025Z,96.65
2016-11-16T17:18:53.016Z,96.46
2016-11-16T17:19:53.011Z,96.55
2016-11-16T17:20:53.001Z,96.36
2016-11-16T17:21:52.997Z,96.17
2016-11-16T17:22:52.987Z,96.36
2016-11-16T17:23:52.977Z,96.08
2016-11-16T17:24:52.970Z,96.65
2016-11-16T17:25:52.962Z,96.84
2016-11-16T17:26:52.953Z,96.36
2016-11-16T17:27:52.947Z,96.46
2016-11-16T17:28:52.939Z,96.17
2016-11-16T17:29:52.933Z,96.84
2016-11-16T17:30:52.928Z,96.36
2016-11-16T17:31:52.912Z,95.98
2016-11-16T17:32:52.905Z,96.84
2016-11-16T17:33:52.901Z,96.55
2016-11-16T17:34:52.887Z,96.36
2016-11-16T17:35:52.879Z,96.65
2016-11-16T17:36:52.876Z,96.08
2016-11-16T17:37:52.868Z,96.84
2016-11-16T17:38:52.860Z,96.65
2016-11-16T17:39:52.850Z,96.27
2016-11-16T17:40:52.844Z,96.36
2016-11-16T17:41:52.835Z,96.65
2016-11-16T17:42:52.831Z,96.75
2016-11-16T17:43:52.817Z,96.46
2016-11-16T17:44:52.807Z,95.89
2016-11-16T17:45:52.800Z,95.79
2016-11-16T17:46:52.791Z,96.65
2016-11-16T17:47:52.785Z,95.79
2016-11-16T17:48:52.779Z,96.36
2016-11-16T17:49:52.770Z,96.36
2016-11-16T17:50:52.762Z,95.89
2016-11-16T17:51:52.750Z,95.98
2016-11-16T17:52:52.746Z,96.08
2016-11-16T17:53:52.742Z,96.17
2016-11-16T17:54:52.729Z,96.17
2016-11-16T17:55:52.723Z,95.89
2016-11-16T17:56:52.712Z,96.17
2016-11-16T17:57:52.705Z,96.08
2016-11-16T17:58:52.698Z,96.17
2016-11-16T17:59:52.688Z,96.08
2016-11-16T18:00:53.033Z,96.08
2016-11-16T18:01:52.670Z,95.98
2016-11-16T18:02:52.667Z,95.7
2016-11-16T18:03:52.659Z,95.79
2016-11-16T18:04:52.649Z,95.79
2016-11-16T18:05:52.644Z,94.93
2016-11-16T18:06:52.629Z,95.89
2016-11-16T18:07:52.621Z,95.6
2016-11-16T18:08:52.615Z,95.89
2016-11-16T18:09:52.608Z,95.51
2016-11-16T18:10:52.600Z,95.22
2016-11-16T18:11:52.593Z,95.41
2016-11-16T18:12:52.584Z,95.98
2016-11-16T18:13:52.570Z,95.7
2016-11-16T18:14:52.568Z,96.17
2016-11-16T18:15:52.556Z,96.17
2016-11-16T18:16:52.548Z,95.89
2016-11-16T18:17:52.543Z,96.17
2016-11-16T18:18:52.532Z,95.98
2016-11-16T18:19:52.522Z,96.17
2016-11-16T18:20:52.516Z,95.89
2016-11-16T18:21:52.509Z,95.79
2016-11-16T18:22:52.499Z,96.27
2016-11-16T18:23:52.490Z,96.27
2016-11-16T18:24:52.485Z,96.75
2016-11-16T18:25:52.480Z,96.65
2016-11-16T18:26:52.471Z,96.65
2016-11-16T18:27:52.459Z,96.75
2016-11-16T18:28:52.455Z,96.65
2016-11-16T18:29:52.441Z,96.46
2016-11-16T18:30:52.436Z,96.65
2016-11-16T18:31:52.426Z,96.36
2016-11-16T18:32:52.423Z,96.65
2016-11-16T18:33:52.411Z,96.55
2016-11-16T18:34:52.403Z,96.75
2016-11-16T18:35:52.394Z,96.65
2016-11-16T18:36:52.386Z,96.55
2016-11-16T18:37:52.381Z,96.65
2016-11-16T18:38:52.374Z,96.46
2016-11-16T18:39:52.363Z,96.84
2016-11-16T18:40:52.358Z,96.46
2016-11-16T18:41:52.349Z,96.27
2016-11-16T18:42:52.342Z,96.46
2016-11-16T18:43:52.332Z,96.27
2016-11-16T18:44:52.324Z,96.46
2016-11-16T18:45:52.624Z,96.46
2016-11-16T18:46:52.309Z,97.22
2016-11-16T18:47:52.297Z,96.94
2016-11-16T18:48:52.289Z,97.41
2016-11-16T18:49:52.284Z,96.84
2016-11-16T18:50:52.276Z,97.41
2016-11-16T18:51:52.268Z,97.41
2016-11-16T18:52:52.260Z,97.6
2016-11-16T18:53:52.249Z,96.94
2016-11-16T18:54:52.242Z,96.94
2016-11-16T18:55:52.234Z,97.22
2016-11-16T18:56:52.228Z,96.94
2016-11-16T18:57:52.222Z,97.79
2016-11-16T18:58:52.211Z,97.22
2016-11-16T18:59:52.203Z,97.03
2016-11-16T19:00:52.193Z,97.51
2016-11-16T19:01:52.185Z,97.13
2016-11-16T19:02:52.179Z,97.46
2016-11-16T19:03:52.171Z,98.08
2016-11-16T19:04:52.164Z,97.55
2016-11-16T19:05:52.158Z,97.79
2016-11-16T19:06:52.151Z,98.32
2016-11-16T19:07:52.139Z,98.32
2016-11-16T19:08:52.129Z,97.84
2016-11-16T19:09:52.124Z,98.22
2016-11-16T19:10:52.114Z,98.13
2016-11-16T19:11:52.102Z,98.22
2016-11-16T19:12:52.097Z,98.32
2016-11-16T19:13:52.088Z,99.27
2016-11-16T19:14:52.082Z,98.88
2016-11-16T19:15:52.068Z,98.79
2016-11-16T19:16:52.062Z,98.69
2016-11-16T19:17:52.056Z,98.79
2016-11-16T19:18:52.050Z,99.36
2016-11-16T19:19:52.038Z,99.46
2016-11-16T19:20:52.034Z,99.84
2016-11-16T19:21:52.022Z,99.93
2016-11-16T19:22:52.010Z,99.74
2016-11-16T19:23:52.006Z,99.93
2016-11-16T19:24:51.995Z,99.99
2016-11-16T19:25:51.989Z,99.65
2016-11-16T19:26:51.979Z,98.98
2016-11-16T19:27:51.972Z,99.41
2016-11-16T19:28:51.961Z,99.17
2016-11-16T19:29:51.955Z,99.27
2016-11-16T19:30:51.946Z,99.41
2016-11-16T19:31:51.943Z,99.32
2016-11-16T19:32:51.930Z,99.41
2016-11-16T19:33:52.230Z,99.41
2016-11-16T19:34:51.913Z,99.41
2016-11-16T19:35:51.905Z,99.22
2016-11-16T19:36:51.894Z,99.22
2016-11-16T19:37:51.889Z,99.41
2016-11-16T19:38:51.882Z,99.03
2016-11-16T19:39:51.870Z,99.03
2016-11-16T19:40:51.867Z,99.03
2016-11-16T19:41:51.855Z,99.22
2016-11-16T19:42:51.847Z,99.03
2016-11-16T19:43:52.139Z,99.13
2016-11-16T19:44:51.834Z,98.94
2016-11-16T19:45:51.827Z,99.03
2016-11-16T19:46:51.814Z,99.03
2016-11-16T19:47:51.802Z,99.13
2016-11-16T19:48:51.798Z,98.94
2016-11-16T19:49:51.787Z,98.94
2016-11-16T19:50:52.096Z,98.84
2016-11-16T19:51:51.774Z,98.94
2016-11-16T19:52:51.766Z,98.94
2016-11-16T19:53:51.756Z,98.84
2016-11-16T19:54:51.750Z,98.36
2016-11-16T19:55:51.742Z,98.55
2016-11-16T19:56:51.733Z,98.27
2016-11-16T19:57:51.721Z,97.79
2016-11-16T19:58:51.723Z,98.46
2016-11-16T19:59:51.715Z,98.65
2016-11-16T20:00:51.700Z,98.36
2016-11-16T20:01:51.689Z,98.46
2016-11-16T20:02:51.684Z,98.27
2016-11-16T20:03:51.672Z,97.99
2016-11-16T20:04:51.665Z,98.36
2016-11-16T20:05:51.657Z,98.36
2016-11-16T20:06:51.651Z,98.27
2016-11-16T20:07:51.643Z,98.18
2016-11-16T20:08:51.631Z,98.36
2016-11-16T20:09:51.623Z,98.08
2016-11-16T20:10:51.617Z,97.99
2016-11-16T20:11:51.611Z,97.7
2016-11-16T20:12:51.605Z,97.51
2016-11-16T20:13:51.594Z,97.51
2016-11-16T20:14:51.584Z,97.7
2016-11-16T20:15:51.578Z,97.89
2016-11-16T20:16:51.566Z,98.08
2016-11-16T20:17:51.589Z,97.79
2016-11-16T20:18:51.550Z,97.99
2016-11-16T20:19:51.543Z,98.27
2016-11-16T20:20:51.564Z,98.36
2016-11-16T20:21:51.531Z,98.27
2016-11-16T20:22:51.519Z,98.08
2016-11-16T20:23:51.514Z,98.18
2016-11-16T20:24:51.504Z,98.18
2016-11-16T20:25:51.493Z,98.27
2016-11-16T20:26:51.485Z,98.18
2016-11-16T20:27:51.478Z,98.18
2016-11-16T20:28:51.469Z,98.46
2016-11-16T20:29:51.463Z,98.08
2016-11-16T20:30:51.450Z,97.79
2016-11-16T20:31:51.448Z,97.6
2016-11-16T20:32:51.438Z,97.7
2016-11-16T20:33:51.429Z,97.89
2016-11-16T20:34:51.420Z,97.6
2016-11-16T20:35:51.409Z,97.41
2016-11-16T20:36:51.405Z,97.79
2016-11-16T20:37:51.397Z,97.6
2016-11-16T20:38:51.385Z,97.22
2016-11-16T20:39:51.381Z,97.41
2016-11-16T20:40:51.371Z,97.27
2016-11-16T20:41:51.367Z,97.03
2016-11-16T20:42:51.356Z,97.22
2016-11-16T20:43:51.349Z,97.41
2016-11-16T20:44:51.377Z,97.22
2016-11-16T20:45:51.332Z,97.46
2016-11-16T20:46:51.326Z,97.36
2016-11-16T20:47:51.317Z,97.51
2016-11-16T20:48:51.309Z,97.41
2016-11-16T20:49:51.299Z,97.31
2016-11-16T20:50:51.292Z,97.27
2016-11-16T20:51:51.288Z,97.27
2016-11-16T20:52:51.276Z,97.08
2016-11-16T20:53:51.270Z,96.98
2016-11-16T20:54:51.261Z,96.7
2016-11-16T20:55:51.253Z,96.22
2016-11-16T20:56:51.244Z,95.94
2016-11-16T20:57:51.235Z,95.94
2016-11-16T20:58:51.229Z,95.94
2016-11-16T20:59:51.218Z,95.79
2016-11-16T21:00:51.216Z,95.75
2016-11-16T21:01:51.206Z,96.36
2016-11-16T21:02:51.198Z,96.36
2016-11-16T21:03:51.185Z,96.65
2016-11-16T21:04:51.179Z,96.46
2016-11-16T21:05:51.175Z,96.65
2016-11-16T21:06:51.165Z,96.65
2016-11-16T21:07:51.162Z,96.65
2016-11-16T21:08:51.149Z,96.65
2016-11-16T21:09:51.142Z,96.46
2016-11-16T21:10:51.133Z,96.55
2016-11-16T21:11:51.125Z,96.75
2016-11-16T21:12:51.115Z,96.84
2016-11-16T21:13:51.107Z,97.13
2016-11-16T21:14:51.099Z,97.22
2016-11-16T21:15:51.092Z,97.31
2016-11-16T21:16:51.082Z,97.41
2016-11-16T21:17:51.075Z,97.13
2016-11-16T21:18:51.063Z,97.13
2016-11-16T21:19:51.090Z,97.22
2016-11-16T21:20:51.051Z,97.03
2016-11-16T21:21:51.042Z,97.22
2016-11-16T21:22:51.035Z,97.46
2016-11-16T21:23:51.024Z,97.27
2016-11-16T21:24:51.017Z,97.6
2016-11-16T21:25:51.006Z,97.84
2016-11-16T21:26:51.001Z,97.55
2016-11-16T21:27:50.990Z,98.13
2016-11-16T21:28:50.985Z,97.65
2016-11-16T21:29:50.975Z,98.03
2016-11-16T21:30:51.011Z,98.32
2016-11-16T21:31:50.960Z,98.41
2016-11-16T21:32:50.952Z,98.41
2016-11-16T21:33:50.941Z,98.13
2016-11-16T21:34:50.935Z,97.93
2016-11-16T21:35:50.927Z,98.6
2016-11-16T21:36:50.916Z,98.69
2016-11-16T21:37:50.907Z,98.79
2016-11-16T21:38:50.903Z,99.17
2016-11-16T21:39:50.896Z,99.08
2016-11-16T21:40:50.885Z,98.88
2016-11-16T21:41:50.876Z,98.88
2016-11-16T21:42:50.865Z,98.69
2016-11-16T21:43:51.163Z,98.79
2016-11-16T21:44:50.854Z,99.08
2016-11-16T21:45:50.845Z,98.6
2016-11-16T21:46:50.830Z,99.17
2016-11-16T21:47:50.827Z,98.88
2016-11-16T21:48:50.816Z,99.08
2016-11-16T21:49:50.806Z,98.98
2016-11-16T21:50:50.798Z,98.88
2016-11-16T21:51:50.790Z,98.98
2016-11-16T21:52:50.782Z,99.08
2016-11-16T21:53:50.804Z,99.36
2016-11-16T21:54:50.765Z,99.17
2016-11-16T21:55:50.754Z,99.36
2016-11-16T21:56:50.753Z,98.98
2016-11-16T21:57:50.739Z,99.55
2016-11-16T21:58:50.735Z,99.27
2016-11-16T21:59:50.724Z,99.27
2016-11-16T22:00:50.716Z,99.17
2016-11-16T22:01:50.703Z,99.65
2016-11-16T22:02:50.696Z,99.65
2016-11-16T22:03:50.688Z,99.84
2016-11-16T22:04:50.677Z,99.74
2016-11-16T22:05:50.669Z,99.93
2016-11-16T22:06:50.663Z,99.84
2016-11-16T22:07:50.652Z,99.93
2016-11-16T22:08:50.642Z,99.93
2016-11-16T22:09:50.636Z,99.93
2016-11-16T22:10:50.932Z,99.74
2016-11-16T22:11:50.617Z,99.65
2016-11-16T22:12:50.609Z,99.74
2016-11-16T22:13:50.603Z,99.84
2016-11-16T22:14:50.593Z,99.74
2016-11-16T22:15:50.581Z,99.65
2016-11-16T22:16:50.572Z,99.65
2016-11-16T22:17:50.598Z,99.84
2016-11-16T22:18:50.556Z,99.84
2016-11-16T22:19:50.547Z,99.84
2016-11-16T22:20:50.541Z,99.99
2016-11-16T22:21:50.529Z,99.99
2016-11-16T22:22:50.523Z,99.99
2016-11-16T22:23:50.512Z,99.99
2016-11-16T22:24:50.503Z,99.99
2016-11-16T22:25:50.496Z,99.99
2016-11-16T22:26:50.484Z,99.99
2016-11-16T22:27:50.480Z,99.99
2016-11-16T22:28:50.466Z,99.99
2016-11-16T22:29:50.460Z,99.99
2016-11-16T22:30:50.454Z,99.93
2016-11-16T22:31:50.447Z,99.99
2016-11-16T22:32:50.463Z,99.99
2016-11-16T22:33:50.427Z,99.99
2016-11-16T22:34:50.415Z,99.99
2016-11-16T22:35:50.405Z,99.99
2016-11-16T22:36:50.399Z,99.99
2016-11-16T22:37:50.386Z,99.99
2016-11-16T22:38:50.693Z,99.99
2016-11-16T22:39:50.372Z,99.99
2016-11-16T22:40:50.362Z,99.99
2016-11-16T22:41:50.353Z,99.99
2016-11-16T22:42:50.348Z,99.99
2016-11-16T22:43:50.336Z,99.99
2016-11-16T22:44:50.329Z,99.99
2016-11-16T22:45:50.323Z,99.99
2016-11-16T22:46:50.309Z,99.99
2016-11-16T22:47:50.302Z,99.99
2016-11-16T22:48:50.601Z,99.99
2016-11-16T22:49:50.287Z,99.99
2016-11-16T22:50:50.280Z,99.99
2016-11-16T22:51:50.266Z,99.99
2016-11-16T22:52:50.257Z,99.99
2016-11-16T22:53:50.248Z,99.99
2016-11-16T22:54:50.246Z,99.99
2016-11-16T22:55:50.234Z,99.99
2016-11-16T22:56:50.222Z,99.99
2016-11-16T22:57:50.219Z,99.84
2016-11-16T22:58:50.205Z,99.99
2016-11-16T22:59:50.199Z,99.65
2016-11-16T23:00:50.187Z,99.84
2016-11-16T23:01:50.179Z,99.65
2016-11-16T23:02:50.169Z,99.84
2016-11-16T23:03:50.194Z,99.84
2016-11-16T23:04:50.151Z,99.84
2016-11-16T23:05:50.155Z,99.79
2016-11-16T23:06:50.136Z,99.84
2016-11-16T23:07:50.136Z,99.79
2016-11-16T23:08:50.123Z,99.99
2016-11-16T23:09:50.105Z,99.99
2016-11-16T23:10:50.101Z,99.99
2016-11-16T23:11:50.092Z,99.99
2016-11-16T23:12:50.082Z,99.99
2016-11-16T23:13:50.071Z,99.99
2016-11-16T23:14:50.067Z,99.99
2016-11-16T23:15:50.057Z,99.99
2016-11-16T23:16:50.047Z,99.99
2016-11-16T23:17:50.037Z,99.99
2016-11-16T23:18:50.027Z,99.99
2016-11-16T23:19:50.321Z,99.99
2016-11-16T23:20:50.010Z,99.99
2016-11-16T23:21:50.005Z,99.98
2016-11-16T23:22:49.999Z,99.99
2016-11-16T23:23:49.986Z,99.99
2016-11-16T23:24:49.975Z,99.99
2016-11-16T23:25:49.968Z,99.99
2016-11-16T23:26:49.957Z,99.99
2016-11-16T23:27:49.976Z,99.99
2016-11-16T23:28:49.945Z,99.99
2016-11-16T23:29:49.933Z,99.99
2016-11-16T23:30:49.922Z,99.99
2016-11-16T23:31:49.912Z,99.99
2016-11-16T23:32:49.903Z,99.99
2016-11-16T23:33:50.203Z,99.99
2016-11-16T23:34:49.891Z,99.99
2016-11-16T23:35:49.880Z,99.99
2016-11-16T23:36:49.873Z,99.99
2016-11-16T23:37:49.865Z,99.99
2016-11-16T23:38:49.852Z,99.99
2016-11-16T23:39:49.843Z,99.99
2016-11-16T23:40:49.835Z,99.99
2016-11-16T23:41:49.828Z,99.99
2016-11-16T23:42:49.819Z,99.99
2016-11-16T23:43:49.807Z,99.88
2016-11-16T23:44:49.799Z,99.99
2016-11-16T23:45:49.794Z,99.99
2016-11-16T23:46:49.784Z,99.99
2016-11-16T23:47:49.770Z,99.99
2016-11-16T23:48:49.760Z,99.99
2016-11-16T23:49:49.751Z,99.99
2016-11-16T23:50:49.744Z,99.99
2016-11-16T23:51:49.734Z,99.99
2016-11-16T23:52:49.728Z,99.99
2016-11-16T23:53:49.723Z,99.99
2016-11-16T23:54:49.709Z,99.99
2016-11-16T23:55:49.700Z,99.99
2016-11-16T23:56:49.693Z,99.99
2016-11-16T23:57:49.686Z,99.99
2016-11-16T23:58:49.671Z,99.99
2016-11-16T23:59:49.667Z,99.99
